sensor_id;sensor_type;location;lat;lon;timestamp;P1;durP1;ratioP1;P2;durP2;ratioP2
9852;SDS011;4965;43.238;27.864;2022-08-02T00:00:53;7.38;;;3.38;;
9852;SDS011;4965;43.238;27.864;2022-08-02T00:03:20;4.15;;;3.85;;
9852;SDS011;4965;43.238;27.864;2022-08-02T00:05:47;5.63;;;3.13;;
9852;SDS011;4965;43.238;27.864;2022-08-02T00:08:15;3.78;;;3.47;;
9852;SDS011;4965;43.238;27.864;2022-08-02T00:10:42;3.92;;;3.47;;
9852;SDS011;4965;43.238;27.864;2022-08-02T00:13:09;3.58;;;3.28;;
9852;SDS011;4965;43.238;27.864;2022-08-02T00:15:36;3.17;;;2.97;;
9852;SDS011;4965;43.238;27.864;2022-08-02T00:18:03;3.80;;;3.40;;
9852;SDS011;4965;43.238;27.864;2022-08-02T00:20:29;3.30;;;3.10;;
9852;SDS011;4965;43.238;27.864;2022-08-02T00:22:56;2.97;;;2.78;;
9852;SDS011;4965;43.238;27.864;2022-08-02T00:25:24;3.63;;;3.30;;
9852;SDS011;4965;43.238;27.864;2022-08-02T00:27:51;3.15;;;2.88;;
9852;SDS011;4965;43.238;27.864;2022-08-02T00:30:18;3.40;;;3.10;;
9852;SDS011;4965;43.238;27.864;2022-08-02T00:32:45;3.38;;;3.08;;
9852;SDS011;4965;43.238;27.864;2022-08-02T00:35:12;4.35;;;3.20;;
9852;SDS011;4965;43.238;27.864;2022-08-02T00:37:38;3.17;;;2.97;;
9852;SDS011;4965;43.238;27.864;2022-08-02T00:40:06;3.20;;;3.00;;
9852;SDS011;4965;43.238;27.864;2022-08-02T00:42:35;3.40;;;3.10;;
9852;SDS011;4965;43.238;27.864;2022-08-02T00:45:02;3.20;;;2.88;;
9852;SDS011;4965;43.238;27.864;2022-08-02T00:47:29;2.97;;;2.78;;
9852;SDS011;4965;43.238;27.864;2022-08-02T00:49:56;5.43;;;3.17;;
9852;SDS011;4965;43.238;27.864;2022-08-02T00:52:23;3.78;;;2.92;;
9852;SDS011;4965;43.238;27.864;2022-08-02T00:54:50;3.45;;;3.25;;
9852;SDS011;4965;43.238;27.864;2022-08-02T00:57:17;5.18;;;3.25;;
9852;SDS011;4965;43.238;27.864;2022-08-02T00:59:45;3.58;;;2.90;;
9852;SDS011;4965;43.238;27.864;2022-08-02T01:02:13;3.28;;;2.95;;
9852;SDS011;4965;43.238;27.864;2022-08-02T01:04:39;5.30;;;3.05;;
9852;SDS011;4965;43.238;27.864;2022-08-02T01:07:06;3.13;;;2.90;;
9852;SDS011;4965;43.238;27.864;2022-08-02T01:09:33;3.63;;;2.92;;
9852;SDS011;4965;43.238;27.864;2022-08-02T01:12:00;3.30;;;3.10;;
9852;SDS011;4965;43.238;27.864;2022-08-02T01:14:27;5.00;;;2.92;;
9852;SDS011;4965;43.238;27.864;2022-08-02T01:17:04;4.03;;;2.90;;
9852;SDS011;4965;43.238;27.864;2022-08-02T01:19:36;3.60;;;3.30;;
9852;SDS011;4965;43.238;27.864;2022-08-02T01:22:19;5.07;;;3.00;;
9852;SDS011;4965;43.238;27.864;2022-08-02T01:25:03;3.65;;;3.35;;
9852;SDS011;4965;43.238;27.864;2022-08-02T01:27:42;3.72;;;3.42;;
9852;SDS011;4965;43.238;27.864;2022-08-02T01:30:21;3.65;;;3.35;;
9852;SDS011;4965;43.238;27.864;2022-08-02T01:32:49;3.97;;;3.58;;
9852;SDS011;4965;43.238;27.864;2022-08-02T01:35:21;3.70;;;3.40;;
9852;SDS011;4965;43.238;27.864;2022-08-02T01:37:54;5.28;;;3.53;;
9852;SDS011;4965;43.238;27.864;2022-08-02T01:40:25;3.75;;;3.45;;
9852;SDS011;4965;43.238;27.864;2022-08-02T01:42:55;4.57;;;4.18;;
9852;SDS011;4965;43.238;27.864;2022-08-02T01:45:25;3.92;;;3.63;;
9852;SDS011;4965;43.238;27.864;2022-08-02T01:47:56;4.38;;;3.90;;
9852;SDS011;4965;43.238;27.864;2022-08-02T01:50:25;6.25;;;3.40;;
9852;SDS011;4965;43.238;27.864;2022-08-02T01:52:57;3.53;;;3.22;;
9852;SDS011;4965;43.238;27.864;2022-08-02T01:55:27;4.15;;;3.78;;
9852;SDS011;4965;43.238;27.864;2022-08-02T01:57:58;3.83;;;3.47;;
9852;SDS011;4965;43.238;27.864;2022-08-02T02:00:31;4.20;;;3.90;;
9852;SDS011;4965;43.238;27.864;2022-08-02T02:03:00;3.83;;;3.53;;
9852;SDS011;4965;43.238;27.864;2022-08-02T02:05:30;4.15;;;3.85;;
9852;SDS011;4965;43.238;27.864;2022-08-02T02:07:59;4.30;;;3.97;;
9852;SDS011;4965;43.238;27.864;2022-08-02T02:10:29;5.18;;;4.15;;
9852;SDS011;4965;43.238;27.864;2022-08-02T02:12:59;4.43;;;3.65;;
9852;SDS011;4965;43.238;27.864;2022-08-02T02:15:31;4.00;;;3.65;;
9852;SDS011;4965;43.238;27.864;2022-08-02T02:17:59;6.68;;;3.90;;
9852;SDS011;4965;43.238;27.864;2022-08-02T02:20:27;4.07;;;3.67;;
9852;SDS011;4965;43.238;27.864;2022-08-02T02:22:56;4.10;;;3.80;;
9852;SDS011;4965;43.238;27.864;2022-08-02T02:25:24;4.78;;;3.45;;
9852;SDS011;4965;43.238;27.864;2022-08-02T02:27:53;4.38;;;4.05;;
9852;SDS011;4965;43.238;27.864;2022-08-02T02:30:24;4.50;;;4.10;;
9852;SDS011;4965;43.238;27.864;2022-08-02T02:32:56;5.53;;;3.80;;
9852;SDS011;4965;43.238;27.864;2022-08-02T02:35:26;4.53;;;4.13;;
9852;SDS011;4965;43.238;27.864;2022-08-02T02:37:58;5.55;;;4.30;;
9852;SDS011;4965;43.238;27.864;2022-08-02T02:40:27;4.90;;;4.22;;
9852;SDS011;4965;43.238;27.864;2022-08-02T02:42:55;5.38;;;4.30;;
9852;SDS011;4965;43.238;27.864;2022-08-02T02:45:23;5.40;;;4.07;;
9852;SDS011;4965;43.238;27.864;2022-08-02T02:47:51;4.32;;;3.92;;
9852;SDS011;4965;43.238;27.864;2022-08-02T02:50:21;4.93;;;4.43;;
9852;SDS011;4965;43.238;27.864;2022-08-02T02:52:49;4.22;;;3.83;;
9852;SDS011;4965;43.238;27.864;2022-08-02T02:55:18;6.88;;;4.57;;
9852;SDS011;4965;43.238;27.864;2022-08-02T02:57:47;4.60;;;4.18;;
9852;SDS011;4965;43.238;27.864;2022-08-02T03:00:14;6.63;;;4.00;;
9852;SDS011;4965;43.238;27.864;2022-08-02T03:02:43;4.90;;;4.35;;
9852;SDS011;4965;43.238;27.864;2022-08-02T03:05:11;4.78;;;4.30;;
9852;SDS011;4965;43.238;27.864;2022-08-02T03:07:39;5.25;;;4.75;;
9852;SDS011;4965;43.238;27.864;2022-08-02T03:10:07;4.65;;;4.25;;
9852;SDS011;4965;43.238;27.864;2022-08-02T03:12:35;4.97;;;4.45;;
9852;SDS011;4965;43.238;27.864;2022-08-02T03:15:03;5.13;;;4.40;;
9852;SDS011;4965;43.238;27.864;2022-08-02T03:17:38;4.68;;;4.05;;
9852;SDS011;4965;43.238;27.864;2022-08-02T03:20:08;5.63;;;3.97;;
9852;SDS011;4965;43.238;27.864;2022-08-02T03:22:36;6.18;;;4.32;;
9852;SDS011;4965;43.238;27.864;2022-08-02T03:25:05;5.32;;;4.35;;
9852;SDS011;4965;43.238;27.864;2022-08-02T03:27:33;5.10;;;3.85;;
9852;SDS011;4965;43.238;27.864;2022-08-02T03:29:59;5.60;;;4.00;;
9852;SDS011;4965;43.238;27.864;2022-08-02T03:32:26;4.60;;;4.20;;
9852;SDS011;4965;43.238;27.864;2022-08-02T03:34:53;4.97;;;4.40;;
9852;SDS011;4965;43.238;27.864;2022-08-02T03:37:21;4.40;;;3.90;;
9852;SDS011;4965;43.238;27.864;2022-08-02T03:39:49;4.55;;;4.15;;
9852;SDS011;4965;43.238;27.864;2022-08-02T03:42:20;7.00;;;4.40;;
9852;SDS011;4965;43.238;27.864;2022-08-02T03:44:48;5.40;;;4.03;;
9852;SDS011;4965;43.238;27.864;2022-08-02T03:47:16;4.00;;;3.70;;
9852;SDS011;4965;43.238;27.864;2022-08-02T03:49:44;7.95;;;3.85;;
9852;SDS011;4965;43.238;27.864;2022-08-02T03:52:12;4.45;;;3.22;;
9852;SDS011;4965;43.238;27.864;2022-08-02T03:54:40;3.80;;;3.50;;
9852;SDS011;4965;43.238;27.864;2022-08-02T03:57:07;6.13;;;3.38;;
9852;SDS011;4965;43.238;27.864;2022-08-02T03:59:40;6.40;;;3.80;;
9852;SDS011;4965;43.238;27.864;2022-08-02T04:02:07;6.25;;;3.70;;
9852;SDS011;4965;43.238;27.864;2022-08-02T04:04:34;4.78;;;3.55;;
9852;SDS011;4965;43.238;27.864;2022-08-02T04:07:01;3.63;;;3.33;;
9852;SDS011;4965;43.238;27.864;2022-08-02T04:09:29;5.60;;;3.47;;
9852;SDS011;4965;43.238;27.864;2022-08-02T04:11:57;4.60;;;3.10;;
9852;SDS011;4965;43.238;27.864;2022-08-02T04:14:23;3.28;;;2.97;;
9852;SDS011;4965;43.238;27.864;2022-08-02T04:16:52;7.90;;;3.20;;
9852;SDS011;4965;43.238;27.864;2022-08-02T04:19:25;4.93;;;3.20;;
9852;SDS011;4965;43.238;27.864;2022-08-02T04:21:57;3.78;;;3.40;;
9852;SDS011;4965;43.238;27.864;2022-08-02T04:24:30;3.88;;;3.53;;
9852;SDS011;4965;43.238;27.864;2022-08-02T04:27:01;8.13;;;3.70;;
9852;SDS011;4965;43.238;27.864;2022-08-02T04:29:30;5.75;;;3.33;;
9852;SDS011;4965;43.238;27.864;2022-08-02T04:32:00;11.77;;;3.53;;
9852;SDS011;4965;43.238;27.864;2022-08-02T04:34:28;10.93;;;3.60;;
9852;SDS011;4965;43.238;27.864;2022-08-02T04:36:55;10.60;;;3.53;;
9852;SDS011;4965;43.238;27.864;2022-08-02T04:39:22;5.05;;;3.13;;
9852;SDS011;4965;43.238;27.864;2022-08-02T04:41:49;4.57;;;3.40;;
9852;SDS011;4965;43.238;27.864;2022-08-02T04:44:16;4.28;;;3.28;;
9852;SDS011;4965;43.238;27.864;2022-08-02T04:46:43;8.07;;;3.42;;
9852;SDS011;4965;43.238;27.864;2022-08-02T04:49:12;14.30;;;4.25;;
9852;SDS011;4965;43.238;27.864;2022-08-02T04:51:40;6.78;;;2.92;;
9852;SDS011;4965;43.238;27.864;2022-08-02T04:54:08;6.15;;;3.35;;
9852;SDS011;4965;43.238;27.864;2022-08-02T04:56:37;5.22;;;3.70;;
9852;SDS011;4965;43.238;27.864;2022-08-02T04:59:04;4.47;;;4.07;;
9852;SDS011;4965;43.238;27.864;2022-08-02T05:01:31;4.07;;;3.35;;
9852;SDS011;4965;43.238;27.864;2022-08-02T05:03:59;9.52;;;3.63;;
9852;SDS011;4965;43.238;27.864;2022-08-02T05:06:27;6.63;;;3.88;;
9852;SDS011;4965;43.238;27.864;2022-08-02T05:08:54;5.40;;;3.80;;
9852;SDS011;4965;43.238;27.864;2022-08-02T05:11:22;6.60;;;4.22;;
9852;SDS011;4965;43.238;27.864;2022-08-02T05:13:49;7.90;;;3.53;;
9852;SDS011;4965;43.238;27.864;2022-08-02T05:16:16;6.13;;;3.92;;
9852;SDS011;4965;43.238;27.864;2022-08-02T05:18:46;5.10;;;3.95;;
9852;SDS011;4965;43.238;27.864;2022-08-02T05:21:15;4.35;;;3.95;;
9852;SDS011;4965;43.238;27.864;2022-08-02T05:23:43;7.35;;;3.80;;
9852;SDS011;4965;43.238;27.864;2022-08-02T05:26:10;4.93;;;4.22;;
9852;SDS011;4965;43.238;27.864;2022-08-02T05:28:37;4.78;;;4.32;;
9852;SDS011;4965;43.238;27.864;2022-08-02T05:31:04;6.68;;;3.95;;
9852;SDS011;4965;43.238;27.864;2022-08-02T05:33:31;7.85;;;4.35;;
9852;SDS011;4965;43.238;27.864;2022-08-02T05:35:58;5.57;;;4.30;;
9852;SDS011;4965;43.238;27.864;2022-08-02T05:38:24;5.40;;;4.13;;
9852;SDS011;4965;43.238;27.864;2022-08-02T05:40:56;6.35;;;4.20;;
9852;SDS011;4965;43.238;27.864;2022-08-02T05:43:23;4.85;;;4.20;;
9852;SDS011;4965;43.238;27.864;2022-08-02T05:45:50;5.85;;;4.30;;
9852;SDS011;4965;43.238;27.864;2022-08-02T05:48:18;4.88;;;4.47;;
9852;SDS011;4965;43.238;27.864;2022-08-02T05:50:46;4.95;;;4.45;;
9852;SDS011;4965;43.238;27.864;2022-08-02T05:53:18;9.40;;;4.78;;
9852;SDS011;4965;43.238;27.864;2022-08-02T05:55:59;6.32;;;4.43;;
9852;SDS011;4965;43.238;27.864;2022-08-02T05:58:34;7.20;;;4.22;;
9852;SDS011;4965;43.238;27.864;2022-08-02T06:01:06;15.77;;;4.95;;
9852;SDS011;4965;43.238;27.864;2022-08-02T06:03:38;5.07;;;4.00;;
9852;SDS011;4965;43.238;27.864;2022-08-02T06:06:10;7.47;;;4.65;;
9852;SDS011;4965;43.238;27.864;2022-08-02T06:08:40;5.45;;;4.82;;
9852;SDS011;4965;43.238;27.864;2022-08-02T06:11:10;5.40;;;4.47;;
9852;SDS011;4965;43.238;27.864;2022-08-02T06:13:39;6.72;;;4.72;;
9852;SDS011;4965;43.238;27.864;2022-08-02T06:16:07;4.88;;;4.38;;
9852;SDS011;4965;43.238;27.864;2022-08-02T06:18:34;5.25;;;4.47;;
9852;SDS011;4965;43.238;27.864;2022-08-02T06:21:02;6.40;;;4.43;;
9852;SDS011;4965;43.238;27.864;2022-08-02T06:23:30;4.97;;;4.47;;
9852;SDS011;4965;43.238;27.864;2022-08-02T06:25:58;6.30;;;5.03;;
9852;SDS011;4965;43.238;27.864;2022-08-02T06:28:27;9.80;;;4.90;;
9852;SDS011;4965;43.238;27.864;2022-08-02T06:30:55;8.57;;;4.60;;
9852;SDS011;4965;43.238;27.864;2022-08-02T06:33:22;7.03;;;4.88;;
9852;SDS011;4965;43.238;27.864;2022-08-02T06:35:50;6.53;;;5.05;;
9852;SDS011;4965;43.238;27.864;2022-08-02T06:38:28;6.57;;;4.82;;
9852;SDS011;4965;43.238;27.864;2022-08-02T06:41:00;6.45;;;4.85;;
9852;SDS011;4965;43.238;27.864;2022-08-02T06:43:37;10.55;;;4.25;;
9852;SDS011;4965;43.238;27.864;2022-08-02T06:46:09;8.18;;;4.68;;
9852;SDS011;4965;43.238;27.864;2022-08-02T06:48:36;5.57;;;4.50;;
9852;SDS011;4965;43.238;27.864;2022-08-02T06:51:04;5.72;;;4.60;;
9852;SDS011;4965;43.238;27.864;2022-08-02T06:53:31;4.63;;;4.25;;
9852;SDS011;4965;43.238;27.864;2022-08-02T06:55:58;7.38;;;4.78;;
9852;SDS011;4965;43.238;27.864;2022-08-02T06:58:24;5.20;;;4.70;;
9852;SDS011;4965;43.238;27.864;2022-08-02T07:00:53;6.70;;;4.80;;
9852;SDS011;4965;43.238;27.864;2022-08-02T07:03:20;9.80;;;4.55;;
9852;SDS011;4965;43.238;27.864;2022-08-02T07:05:47;4.78;;;4.30;;
9852;SDS011;4965;43.238;27.864;2022-08-02T07:08:13;7.22;;;4.20;;
9852;SDS011;4965;43.238;27.864;2022-08-02T07:10:41;6.28;;;4.68;;
9852;SDS011;4965;43.238;27.864;2022-08-02T07:13:07;5.00;;;4.55;;
9852;SDS011;4965;43.238;27.864;2022-08-02T07:15:35;5.78;;;4.25;;
9852;SDS011;4965;43.238;27.864;2022-08-02T07:18:04;6.97;;;4.07;;
9852;SDS011;4965;43.238;27.864;2022-08-02T07:20:31;7.70;;;4.40;;
9852;SDS011;4965;43.238;27.864;2022-08-02T07:22:58;9.35;;;4.43;;
9852;SDS011;4965;43.238;27.864;2022-08-02T07:25:25;5.03;;;4.63;;
9852;SDS011;4965;43.238;27.864;2022-08-02T07:27:52;5.00;;;4.25;;
9852;SDS011;4965;43.238;27.864;2022-08-02T07:30:19;6.40;;;4.80;;
9852;SDS011;4965;43.238;27.864;2022-08-02T07:32:45;4.82;;;4.20;;
9852;SDS011;4965;43.238;27.864;2022-08-02T07:35:14;5.70;;;4.20;;
9852;SDS011;4965;43.238;27.864;2022-08-02T07:37:40;5.80;;;4.03;;
9852;SDS011;4965;43.238;27.864;2022-08-02T07:40:10;8.35;;;4.30;;
9852;SDS011;4965;43.238;27.864;2022-08-02T07:42:38;8.48;;;4.43;;
9852;SDS011;4965;43.238;27.864;2022-08-02T07:45:05;5.15;;;4.05;;
9852;SDS011;4965;43.238;27.864;2022-08-02T07:47:34;6.75;;;4.78;;
9852;SDS011;4965;43.238;27.864;2022-08-02T07:50:02;7.63;;;5.10;;
9852;SDS011;4965;43.238;27.864;2022-08-02T07:52:30;6.20;;;4.00;;
9852;SDS011;4965;43.238;27.864;2022-08-02T07:54:57;5.97;;;4.15;;
9852;SDS011;4965;43.238;27.864;2022-08-02T07:57:24;5.20;;;3.95;;
9852;SDS011;4965;43.238;27.864;2022-08-02T07:59:51;5.07;;;4.50;;
9852;SDS011;4965;43.238;27.864;2022-08-02T08:02:17;7.97;;;4.47;;
9852;SDS011;4965;43.238;27.864;2022-08-02T08:04:44;6.13;;;4.20;;
9852;SDS011;4965;43.238;27.864;2022-08-02T08:07:11;4.32;;;3.88;;
9852;SDS011;4965;43.238;27.864;2022-08-02T08:09:39;8.52;;;3.88;;
9852;SDS011;4965;43.238;27.864;2022-08-02T08:12:08;10.23;;;4.68;;
9852;SDS011;4965;43.238;27.864;2022-08-02T08:14:35;5.10;;;4.10;;
9852;SDS011;4965;43.238;27.864;2022-08-02T08:17:03;5.57;;;3.72;;
9852;SDS011;4965;43.238;27.864;2022-08-02T08:19:30;5.85;;;4.05;;
9852;SDS011;4965;43.238;27.864;2022-08-02T08:21:57;5.82;;;4.07;;
9852;SDS011;4965;43.238;27.864;2022-08-02T08:24:24;5.40;;;3.92;;
9852;SDS011;4965;43.238;27.864;2022-08-02T08:26:53;5.43;;;3.72;;
9852;SDS011;4965;43.238;27.864;2022-08-02T08:29:20;7.22;;;3.70;;
9852;SDS011;4965;43.238;27.864;2022-08-02T08:31:46;4.28;;;3.88;;
9852;SDS011;4965;43.238;27.864;2022-08-02T08:34:13;4.60;;;4.20;;
9852;SDS011;4965;43.238;27.864;2022-08-02T08:36:41;6.05;;;4.20;;
9852;SDS011;4965;43.238;27.864;2022-08-02T08:39:08;4.72;;;4.22;;
9852;SDS011;4965;43.238;27.864;2022-08-02T08:41:35;5.85;;;3.83;;
9852;SDS011;4965;43.238;27.864;2022-08-02T08:44:04;5.07;;;4.47;;
9852;SDS011;4965;43.238;27.864;2022-08-02T08:46:32;19.98;;;4.22;;
9852;SDS011;4965;43.238;27.864;2022-08-02T08:49:05;4.47;;;3.90;;
9852;SDS011;4965;43.238;27.864;2022-08-02T08:51:35;9.77;;;4.00;;
9852;SDS011;4965;43.238;27.864;2022-08-02T08:54:03;7.00;;;3.72;;
9852;SDS011;4965;43.238;27.864;2022-08-02T08:56:34;8.02;;;3.70;;
9852;SDS011;4965;43.238;27.864;2022-08-02T08:59:02;8.65;;;3.92;;
9852;SDS011;4965;43.238;27.864;2022-08-02T09:01:31;3.85;;;3.55;;
9852;SDS011;4965;43.238;27.864;2022-08-02T09:03:58;4.15;;;3.50;;
9852;SDS011;4965;43.238;27.864;2022-08-02T09:06:25;4.80;;;3.80;;
9852;SDS011;4965;43.238;27.864;2022-08-02T09:08:52;5.43;;;3.40;;
9852;SDS011;4965;43.238;27.864;2022-08-02T09:11:21;6.82;;;3.55;;
9852;SDS011;4965;43.238;27.864;2022-08-02T09:13:50;3.75;;;3.33;;
9852;SDS011;4965;43.238;27.864;2022-08-02T09:16:32;4.63;;;3.58;;
9852;SDS011;4965;43.238;27.864;2022-08-02T09:19:00;4.80;;;3.30;;
9852;SDS011;4965;43.238;27.864;2022-08-02T09:21:42;3.88;;;3.20;;
9852;SDS011;4965;43.238;27.864;2022-08-02T09:24:16;3.25;;;3.03;;
9852;SDS011;4965;43.238;27.864;2022-08-02T09:26:45;6.35;;;3.17;;
9852;SDS011;4965;43.238;27.864;2022-08-02T09:29:12;4.15;;;3.28;;
9852;SDS011;4965;43.238;27.864;2022-08-02T09:31:41;3.40;;;3.10;;
9852;SDS011;4965;43.238;27.864;2022-08-02T09:34:08;4.32;;;3.00;;
9852;SDS011;4965;43.238;27.864;2022-08-02T09:36:36;4.15;;;2.95;;
9852;SDS011;4965;43.238;27.864;2022-08-02T09:39:06;5.63;;;3.20;;
9852;SDS011;4965;43.238;27.864;2022-08-02T09:41:34;3.78;;;2.80;;
9852;SDS011;4965;43.238;27.864;2022-08-02T09:44:03;2.88;;;2.35;;
9852;SDS011;4965;43.238;27.864;2022-08-02T09:46:32;3.15;;;2.83;;
9852;SDS011;4965;43.238;27.864;2022-08-02T09:49:03;2.92;;;2.72;;
9852;SDS011;4965;43.238;27.864;2022-08-02T09:51:33;3.53;;;3.15;;
9852;SDS011;4965;43.238;27.864;2022-08-02T09:54:01;4.07;;;2.85;;
9852;SDS011;4965;43.238;27.864;2022-08-02T09:56:38;6.40;;;2.80;;
9852;SDS011;4965;43.238;27.864;2022-08-02T09:59:07;6.55;;;2.63;;
9852;SDS011;4965;43.238;27.864;2022-08-02T10:01:35;8.65;;;2.80;;
9852;SDS011;4965;43.238;27.864;2022-08-02T10:04:05;3.15;;;2.80;;
9852;SDS011;4965;43.238;27.864;2022-08-02T10:06:35;7.47;;;2.90;;
9852;SDS011;4965;43.238;27.864;2022-08-02T10:09:02;4.43;;;2.60;;
9852;SDS011;4965;43.238;27.864;2022-08-02T10:11:29;7.50;;;2.58;;
9852;SDS011;4965;43.238;27.864;2022-08-02T10:13:57;2.72;;;2.53;;
9852;SDS011;4965;43.238;27.864;2022-08-02T10:16:24;2.80;;;2.60;;
9852;SDS011;4965;43.238;27.864;2022-08-02T10:18:52;5.43;;;2.97;;
9852;SDS011;4965;43.238;27.864;2022-08-02T10:21:23;2.75;;;2.53;;
9852;SDS011;4965;43.238;27.864;2022-08-02T10:23:59;4.50;;;2.90;;
9852;SDS011;4965;43.238;27.864;2022-08-02T10:26:31;5.32;;;3.00;;
9852;SDS011;4965;43.238;27.864;2022-08-02T10:28:58;4.38;;;3.05;;
9852;SDS011;4965;43.238;27.864;2022-08-02T10:31:26;9.30;;;2.95;;
9852;SDS011;4965;43.238;27.864;2022-08-02T10:33:59;7.25;;;2.80;;
9852;SDS011;4965;43.238;27.864;2022-08-02T10:36:30;2.47;;;2.28;;
9852;SDS011;4965;43.238;27.864;2022-08-02T10:39:00;3.90;;;2.97;;
9852;SDS011;4965;43.238;27.864;2022-08-02T10:41:41;2.90;;;2.70;;
9852;SDS011;4965;43.238;27.864;2022-08-02T10:44:18;3.65;;;2.70;;
9852;SDS011;4965;43.238;27.864;2022-08-02T10:46:50;3.03;;;2.75;;
9852;SDS011;4965;43.238;27.864;2022-08-02T10:49:18;3.20;;;3.00;;
9852;SDS011;4965;43.238;27.864;2022-08-02T10:52:06;3.03;;;2.40;;
9852;SDS011;4965;43.238;27.864;2022-08-02T10:54:35;5.15;;;2.75;;
9852;SDS011;4965;43.238;27.864;2022-08-02T10:57:13;6.30;;;3.13;;
9852;SDS011;4965;43.238;27.864;2022-08-02T10:59:41;8.07;;;3.22;;
9852;SDS011;4965;43.238;27.864;2022-08-02T11:02:09;5.65;;;3.50;;
9852;SDS011;4965;43.238;27.864;2022-08-02T11:07:38;3.17;;;2.97;;
9852;SDS011;4965;43.238;27.864;2022-08-02T11:13:00;7.30;;;3.50;;
9852;SDS011;4965;43.238;27.864;2022-08-02T11:15:29;6.93;;;3.55;;
9852;SDS011;4965;43.238;27.864;2022-08-02T11:18:16;3.78;;;3.47;;
9852;SDS011;4965;43.238;27.864;2022-08-02T11:20:44;7.43;;;3.60;;
9852;SDS011;4965;43.238;27.864;2022-08-02T11:26:02;7.28;;;3.80;;
9852;SDS011;4965;43.238;27.864;2022-08-02T11:28:29;6.45;;;3.60;;
9852;SDS011;4965;43.238;27.864;2022-08-02T11:30:58;4.85;;;3.90;;
9852;SDS011;4965;43.238;27.864;2022-08-02T11:33:29;8.52;;;4.40;;
9852;SDS011;4965;43.238;27.864;2022-08-02T11:36:01;5.40;;;4.15;;
9852;SDS011;4965;43.238;27.864;2022-08-02T11:38:29;4.20;;;3.90;;
9852;SDS011;4965;43.238;27.864;2022-08-02T11:40:58;3.80;;;3.50;;
9852;SDS011;4965;43.238;27.864;2022-08-02T11:43:27;4.68;;;4.00;;
9852;SDS011;4965;43.238;27.864;2022-08-02T11:45:54;5.28;;;4.00;;
9852;SDS011;4965;43.238;27.864;2022-08-02T11:48:28;8.07;;;4.20;;
9852;SDS011;4965;43.238;27.864;2022-08-02T11:51:06;8.90;;;4.20;;
9852;SDS011;4965;43.238;27.864;2022-08-02T11:53:44;5.65;;;4.40;;
9852;SDS011;4965;43.238;27.864;2022-08-02T11:56:15;10.80;;;3.97;;
9852;SDS011;4965;43.238;27.864;2022-08-02T12:01:29;4.78;;;3.88;;
9852;SDS011;4965;43.238;27.864;2022-08-02T12:03:56;3.55;;;3.25;;
9852;SDS011;4965;43.238;27.864;2022-08-02T12:06:25;6.13;;;3.40;;
9852;SDS011;4965;43.238;27.864;2022-08-02T12:08:57;6.35;;;3.30;;
9852;SDS011;4965;43.238;27.864;2022-08-02T12:11:26;6.25;;;3.38;;
9852;SDS011;4965;43.238;27.864;2022-08-02T12:13:53;8.32;;;3.88;;
9852;SDS011;4965;43.238;27.864;2022-08-02T12:16:22;5.68;;;3.35;;
9852;SDS011;4965;43.238;27.864;2022-08-02T12:19:06;7.53;;;3.65;;
9852;SDS011;4965;43.238;27.864;2022-08-02T12:21:47;3.58;;;3.28;;
9852;SDS011;4965;43.238;27.864;2022-08-02T12:24:26;3.67;;;3.10;;
9852;SDS011;4965;43.238;27.864;2022-08-02T12:26:54;6.05;;;3.40;;
9852;SDS011;4965;43.238;27.864;2022-08-02T12:29:30;6.85;;;3.70;;
9852;SDS011;4965;43.238;27.864;2022-08-02T12:31:59;4.95;;;3.20;;
9852;SDS011;4965;43.238;27.864;2022-08-02T12:34:27;6.40;;;3.58;;
9852;SDS011;4965;43.238;27.864;2022-08-02T12:36:58;5.05;;;3.08;;
9852;SDS011;4965;43.238;27.864;2022-08-02T12:39:34;9.48;;;2.97;;
9852;SDS011;4965;43.238;27.864;2022-08-02T12:42:04;3.35;;;3.05;;
9852;SDS011;4965;43.238;27.864;2022-08-02T12:44:32;5.10;;;3.00;;
9852;SDS011;4965;43.238;27.864;2022-08-02T12:46:59;2.97;;;2.78;;
9852;SDS011;4965;43.238;27.864;2022-08-02T12:49:28;5.75;;;3.08;;
9852;SDS011;4965;43.238;27.864;2022-08-02T12:51:55;3.58;;;2.92;;
9852;SDS011;4965;43.238;27.864;2022-08-02T12:54:23;4.10;;;3.42;;
9852;SDS011;4965;43.238;27.864;2022-08-02T12:56:51;5.07;;;3.03;;
9852;SDS011;4965;43.238;27.864;2022-08-02T12:59:33;5.07;;;3.20;;
9852;SDS011;4965;43.238;27.864;2022-08-02T13:02:02;6.68;;;2.92;;
9852;SDS011;4965;43.238;27.864;2022-08-02T13:04:30;3.72;;;3.38;;
9852;SDS011;4965;43.238;27.864;2022-08-02T13:06:58;5.25;;;2.95;;
9852;SDS011;4965;43.238;27.864;2022-08-02T13:09:25;3.05;;;2.85;;
9852;SDS011;4965;43.238;27.864;2022-08-02T13:11:51;5.30;;;2.90;;
9852;SDS011;4965;43.238;27.864;2022-08-02T13:14:18;6.07;;;2.95;;
9852;SDS011;4965;43.238;27.864;2022-08-02T13:16:46;4.68;;;2.80;;
9852;SDS011;4965;43.238;27.864;2022-08-02T13:19:13;9.82;;;2.85;;
9852;SDS011;4965;43.238;27.864;2022-08-02T13:21:41;9.95;;;3.30;;
9852;SDS011;4965;43.238;27.864;2022-08-02T13:24:10;3.60;;;2.70;;
9852;SDS011;4965;43.238;27.864;2022-08-02T13:26:38;5.53;;;3.20;;
9852;SDS011;4965;43.238;27.864;2022-08-02T13:29:05;6.38;;;3.15;;
9852;SDS011;4965;43.238;27.864;2022-08-02T13:31:33;5.22;;;3.05;;
9852;SDS011;4965;43.238;27.864;2022-08-02T13:34:03;4.53;;;2.65;;
9852;SDS011;4965;43.238;27.864;2022-08-02T13:36:30;10.10;;;2.90;;
9852;SDS011;4965;43.238;27.864;2022-08-02T13:38:57;11.30;;;3.10;;
9852;SDS011;4965;43.238;27.864;2022-08-02T13:41:24;2.90;;;2.70;;
9852;SDS011;4965;43.238;27.864;2022-08-02T13:43:51;4.85;;;3.25;;
9852;SDS011;4965;43.238;27.864;2022-08-02T13:46:18;4.35;;;2.72;;
9852;SDS011;4965;43.238;27.864;2022-08-02T13:48:45;3.88;;;3.47;;
9852;SDS011;4965;43.238;27.864;2022-08-02T13:51:13;4.63;;;2.92;;
9852;SDS011;4965;43.238;27.864;2022-08-02T13:53:40;9.77;;;4.07;;
9852;SDS011;4965;43.238;27.864;2022-08-02T13:56:07;9.77;;;4.88;;
9852;SDS011;4965;43.238;27.864;2022-08-02T13:58:34;9.48;;;3.38;;
9852;SDS011;4965;43.238;27.864;2022-08-02T14:01:01;15.38;;;4.43;;
9852;SDS011;4965;43.238;27.864;2022-08-02T14:03:28;12.10;;;4.13;;
9852;SDS011;4965;43.238;27.864;2022-08-02T14:05:55;7.00;;;3.25;;
9852;SDS011;4965;43.238;27.864;2022-08-02T14:08:23;3.83;;;2.90;;
9852;SDS011;4965;43.238;27.864;2022-08-02T14:10:50;5.28;;;3.30;;
9852;SDS011;4965;43.238;27.864;2022-08-02T14:13:17;5.65;;;2.70;;
9852;SDS011;4965;43.238;27.864;2022-08-02T14:15:44;2.63;;;2.42;;
9852;SDS011;4965;43.238;27.864;2022-08-02T14:18:12;2.80;;;2.60;;
9852;SDS011;4965;43.238;27.864;2022-08-02T14:20:39;3.67;;;2.97;;
9852;SDS011;4965;43.238;27.864;2022-08-02T14:23:06;8.02;;;3.10;;
9852;SDS011;4965;43.238;27.864;2022-08-02T14:25:35;3.80;;;2.95;;
9852;SDS011;4965;43.238;27.864;2022-08-02T14:28:02;6.82;;;3.15;;
9852;SDS011;4965;43.238;27.864;2022-08-02T14:30:29;6.32;;;3.25;;
9852;SDS011;4965;43.238;27.864;2022-08-02T14:32:56;8.57;;;3.33;;
9852;SDS011;4965;43.238;27.864;2022-08-02T14:35:23;2.70;;;2.50;;
9852;SDS011;4965;43.238;27.864;2022-08-02T14:37:50;8.20;;;3.28;;
9852;SDS011;4965;43.238;27.864;2022-08-02T14:40:17;10.63;;;3.15;;
9852;SDS011;4965;43.238;27.864;2022-08-02T14:42:45;6.28;;;3.05;;
9852;SDS011;4965;43.238;27.864;2022-08-02T14:45:12;5.45;;;3.20;;
9852;SDS011;4965;43.238;27.864;2022-08-02T14:47:40;6.35;;;3.20;;
9852;SDS011;4965;43.238;27.864;2022-08-02T14:50:07;4.25;;;2.80;;
9852;SDS011;4965;43.238;27.864;2022-08-02T14:52:35;4.43;;;2.88;;
9852;SDS011;4965;43.238;27.864;2022-08-02T14:55:02;5.53;;;2.70;;
9852;SDS011;4965;43.238;27.864;2022-08-02T14:57:29;4.03;;;3.20;;
9852;SDS011;4965;43.238;27.864;2022-08-02T14:59:57;4.75;;;3.08;;
9852;SDS011;4965;43.238;27.864;2022-08-02T15:02:25;10.65;;;3.15;;
9852;SDS011;4965;43.238;27.864;2022-08-02T15:04:52;9.25;;;2.90;;
9852;SDS011;4965;43.238;27.864;2022-08-02T15:07:19;6.50;;;2.95;;
9852;SDS011;4965;43.238;27.864;2022-08-02T15:09:46;4.63;;;2.72;;
9852;SDS011;4965;43.238;27.864;2022-08-02T15:12:13;3.55;;;2.80;;
9852;SDS011;4965;43.238;27.864;2022-08-02T15:14:41;4.78;;;2.97;;
9852;SDS011;4965;43.238;27.864;2022-08-02T15:17:09;11.43;;;3.25;;
9852;SDS011;4965;43.238;27.864;2022-08-02T15:19:36;5.60;;;2.72;;
9852;SDS011;4965;43.238;27.864;2022-08-02T15:22:05;4.75;;;3.78;;